sensor_id;sensor_type;location;lat;lon;timestamp;P1;durP1;ratioP1;P2;durP2;ratioP2
57325;SDS011;43161;50.950;18.224;2022-11-21T00:00:41;64.50;;;25.90;;
57325;SDS011;43161;50.950;18.224;2022-11-21T00:03:09;73.70;;;27.90;;
57325;SDS011;43161;50.950;18.224;2022-11-21T00:05:37;72.60;;;24.90;;
57325;SDS011;43161;50.950;18.224;2022-11-21T00:08:05;63.70;;;25.40;;
57325;SDS011;43161;50.950;18.224;2022-11-21T00:10:32;62.00;;;25.40;;
57325;SDS011;43161;50.950;18.224;2022-11-21T00:12:58;61.60;;;25.30;;
57325;SDS011;43161;50.950;18.224;2022-11-21T00:15:24;64.30;;;24.00;;
57325;SDS011;43161;50.950;18.224;2022-11-21T00:17:51;59.20;;;22.80;;
57325;SDS011;43161;50.950;18.224;2022-11-21T00:20:17;64.30;;;24.30;;
57325;SDS011;43161;50.950;18.224;2022-11-21T00:22:44;63.90;;;23.50;;
57325;SDS011;43161;50.950;18.224;2022-11-21T00:25:10;58.90;;;23.20;;
57325;SDS011;43161;50.950;18.224;2022-11-21T00:27:36;62.30;;;26.10;;
57325;SDS011;43161;50.950;18.224;2022-11-21T00:30:02;60.20;;;23.90;;
57325;SDS011;43161;50.950;18.224;2022-11-21T00:32:28;58.90;;;25.40;;
57325;SDS011;43161;50.950;18.224;2022-11-21T00:34:54;57.90;;;24.70;;
57325;SDS011;43161;50.950;18.224;2022-11-21T00:37:20;63.20;;;25.30;;
57325;SDS011;43161;50.950;18.224;2022-11-21T00:39:45;59.10;;;24.50;;
57325;SDS011;43161;50.950;18.224;2022-11-21T00:42:11;59.60;;;24.00;;
57325;SDS011;43161;50.950;18.224;2022-11-21T00:44:36;67.10;;;26.60;;
57325;SDS011;43161;50.950;18.224;2022-11-21T00:47:02;65.10;;;26.10;;
57325;SDS011;43161;50.950;18.224;2022-11-21T00:49:28;66.50;;;26.00;;
57325;SDS011;43161;50.950;18.224;2022-11-21T00:51:53;64.20;;;24.70;;
57325;SDS011;43161;50.950;18.224;2022-11-21T00:54:19;66.90;;;25.40;;
57325;SDS011;43161;50.950;18.224;2022-11-21T00:56:45;64.10;;;26.50;;
57325;SDS011;43161;50.950;18.224;2022-11-21T00:59:10;69.70;;;26.20;;
57325;SDS011;43161;50.950;18.224;2022-11-21T01:01:36;69.60;;;25.50;;
57325;SDS011;43161;50.950;18.224;2022-11-21T01:04:02;68.50;;;25.60;;
57325;SDS011;43161;50.950;18.224;2022-11-21T01:06:28;58.60;;;23.30;;
57325;SDS011;43161;50.950;18.224;2022-11-21T01:08:53;67.70;;;24.20;;
57325;SDS011;43161;50.950;18.224;2022-11-21T01:11:19;60.00;;;23.20;;
57325;SDS011;43161;50.950;18.224;2022-11-21T01:13:46;68.60;;;23.80;;
57325;SDS011;43161;50.950;18.224;2022-11-21T01:16:13;60.10;;;22.60;;
57325;SDS011;43161;50.950;18.224;2022-11-21T01:18:41;58.70;;;23.20;;
57325;SDS011;43161;50.950;18.224;2022-11-21T01:23:54;56.90;;;19.40;;
57325;SDS011;43161;50.950;18.224;2022-11-21T01:26:23;50.70;;;19.40;;
57325;SDS011;43161;50.950;18.224;2022-11-21T01:28:50;50.20;;;18.60;;
57325;SDS011;43161;50.950;18.224;2022-11-21T01:31:17;46.90;;;18.70;;
57325;SDS011;43161;50.950;18.224;2022-11-21T01:33:44;56.10;;;19.20;;
57325;SDS011;43161;50.950;18.224;2022-11-21T01:36:13;50.90;;;19.00;;
57325;SDS011;43161;50.950;18.224;2022-11-21T01:38:44;50.50;;;18.00;;
57325;SDS011;43161;50.950;18.224;2022-11-21T01:41:11;56.10;;;20.50;;
57325;SDS011;43161;50.950;18.224;2022-11-21T01:43:38;61.70;;;20.90;;
57325;SDS011;43161;50.950;18.224;2022-11-21T01:51:47;59.40;;;22.20;;
57325;SDS011;43161;50.950;18.224;2022-11-21T01:54:36;56.10;;;18.60;;
57325;SDS011;43161;50.950;18.224;2022-11-21T02:02:49;48.70;;;16.40;;
57325;SDS011;43161;50.950;18.224;2022-11-21T02:05:21;52.90;;;20.20;;
57325;SDS011;43161;50.950;18.224;2022-11-21T02:07:49;51.40;;;20.80;;
57325;SDS011;43161;50.950;18.224;2022-11-21T02:10:17;55.90;;;22.50;;
57325;SDS011;43161;50.950;18.224;2022-11-21T02:15:19;54.30;;;21.20;;
57325;SDS011;43161;50.950;18.224;2022-11-21T02:17:47;61.40;;;22.10;;
57325;SDS011;43161;50.950;18.224;2022-11-21T02:20:16;59.90;;;21.30;;
57325;SDS011;43161;50.950;18.224;2022-11-21T02:22:45;59.60;;;22.50;;
57325;SDS011;43161;50.950;18.224;2022-11-21T02:25:17;53.20;;;21.50;;
57325;SDS011;43161;50.950;18.224;2022-11-21T02:27:44;58.80;;;23.30;;
57325;SDS011;43161;50.950;18.224;2022-11-21T02:30:11;61.00;;;23.60;;
57325;SDS011;43161;50.950;18.224;2022-11-21T02:32:39;57.40;;;23.50;;
57325;SDS011;43161;50.950;18.224;2022-11-21T02:35:06;57.30;;;23.90;;
57325;SDS011;43161;50.950;18.224;2022-11-21T02:37:34;58.80;;;24.20;;
57325;SDS011;43161;50.950;18.224;2022-11-21T02:40:02;56.60;;;23.40;;
57325;SDS011;43161;50.950;18.224;2022-11-21T02:42:42;62.00;;;23.10;;
57325;SDS011;43161;50.950;18.224;2022-11-21T02:47:42;61.90;;;23.70;;
57325;SDS011;43161;50.950;18.224;2022-11-21T02:52:38;62.90;;;27.40;;
57325;SDS011;43161;50.950;18.224;2022-11-21T02:55:04;61.50;;;22.90;;
57325;SDS011;43161;50.950;18.224;2022-11-21T02:57:30;57.80;;;23.90;;
57325;SDS011;43161;50.950;18.224;2022-11-21T02:59:56;63.00;;;25.40;;
57325;SDS011;43161;50.950;18.224;2022-11-21T03:02:22;58.10;;;23.80;;
57325;SDS011;43161;50.950;18.224;2022-11-21T03:04:47;63.20;;;24.90;;
57325;SDS011;43161;50.950;18.224;2022-11-21T03:07:13;58.10;;;24.60;;
57325;SDS011;43161;50.950;18.224;2022-11-21T03:09:38;59.10;;;24.10;;
57325;SDS011;43161;50.950;18.224;2022-11-21T03:12:05;56.60;;;24.40;;
57325;SDS011;43161;50.950;18.224;2022-11-21T03:14:32;57.20;;;24.10;;
57325;SDS011;43161;50.950;18.224;2022-11-21T03:16:58;59.00;;;23.90;;
57325;SDS011;43161;50.950;18.224;2022-11-21T03:19:23;56.40;;;25.10;;
57325;SDS011;43161;50.950;18.224;2022-11-21T03:21:49;57.50;;;23.60;;
57325;SDS011;43161;50.950;18.224;2022-11-21T03:24:15;59.20;;;23.70;;
57325;SDS011;43161;50.950;18.224;2022-11-21T03:26:41;57.40;;;23.40;;
57325;SDS011;43161;50.950;18.224;2022-11-21T03:29:06;53.30;;;20.90;;
57325;SDS011;43161;50.950;18.224;2022-11-21T03:31:32;53.60;;;20.30;;
57325;SDS011;43161;50.950;18.224;2022-11-21T03:33:57;59.40;;;20.90;;
57325;SDS011;43161;50.950;18.224;2022-11-21T03:36:23;51.70;;;20.70;;
57325;SDS011;43161;50.950;18.224;2022-11-21T03:38:49;54.80;;;21.50;;
57325;SDS011;43161;50.950;18.224;2022-11-21T03:41:14;61.70;;;22.90;;
57325;SDS011;43161;50.950;18.224;2022-11-21T03:43:59;57.40;;;21.60;;
57325;SDS011;43161;50.950;18.224;2022-11-21T03:46:26;55.30;;;21.20;;
57325;SDS011;43161;50.950;18.224;2022-11-21T03:48:53;57.10;;;21.20;;
57325;SDS011;43161;50.950;18.224;2022-11-21T03:51:19;58.40;;;22.60;;
57325;SDS011;43161;50.950;18.224;2022-11-21T03:53:45;61.00;;;22.40;;
57325;SDS011;43161;50.950;18.224;2022-11-21T03:56:11;59.00;;;23.80;;
57325;SDS011;43161;50.950;18.224;2022-11-21T03:58:36;67.20;;;25.80;;
57325;SDS011;43161;50.950;18.224;2022-11-21T04:01:02;66.30;;;25.80;;
57325;SDS011;43161;50.950;18.224;2022-11-21T04:03:28;66.40;;;25.60;;
57325;SDS011;43161;50.950;18.224;2022-11-21T04:05:53;62.10;;;24.90;;
57325;SDS011;43161;50.950;18.224;2022-11-21T04:08:19;71.50;;;27.70;;
57325;SDS011;43161;50.950;18.224;2022-11-21T04:10:46;71.10;;;28.10;;
57325;SDS011;43161;50.950;18.224;2022-11-21T04:13:13;71.40;;;27.70;;
57325;SDS011;43161;50.950;18.224;2022-11-21T04:15:41;70.30;;;29.20;;
57325;SDS011;43161;50.950;18.224;2022-11-21T04:18:08;71.40;;;27.80;;
57325;SDS011;43161;50.950;18.224;2022-11-21T04:20:33;69.90;;;27.00;;
57325;SDS011;43161;50.950;18.224;2022-11-21T04:22:59;74.00;;;28.60;;
57325;SDS011;43161;50.950;18.224;2022-11-21T04:25:24;71.90;;;28.80;;
57325;SDS011;43161;50.950;18.224;2022-11-21T04:27:50;70.70;;;28.10;;
57325;SDS011;43161;50.950;18.224;2022-11-21T04:30:16;74.90;;;30.50;;
57325;SDS011;43161;50.950;18.224;2022-11-21T04:32:41;76.70;;;28.80;;
57325;SDS011;43161;50.950;18.224;2022-11-21T04:35:08;71.50;;;27.80;;
57325;SDS011;43161;50.950;18.224;2022-11-21T04:37:34;75.50;;;30.40;;
57325;SDS011;43161;50.950;18.224;2022-11-21T04:39:59;81.80;;;32.20;;
57325;SDS011;43161;50.950;18.224;2022-11-21T04:42:25;74.10;;;29.20;;
57325;SDS011;43161;50.950;18.224;2022-11-21T04:44:51;74.90;;;30.90;;
57325;SDS011;43161;50.950;18.224;2022-11-21T04:47:16;73.10;;;29.30;;
57325;SDS011;43161;50.950;18.224;2022-11-21T04:49:42;72.10;;;28.10;;
57325;SDS011;43161;50.950;18.224;2022-11-21T04:52:07;71.00;;;28.00;;
57325;SDS011;43161;50.950;18.224;2022-11-21T04:54:32;156.80;;;50.70;;
57325;SDS011;43161;50.950;18.224;2022-11-21T04:56:58;192.50;;;58.90;;
57325;SDS011;43161;50.950;18.224;2022-11-21T04:59:23;362.60;;;101.70;;
57325;SDS011;43161;50.950;18.224;2022-11-21T05:01:49;257.50;;;68.20;;
57325;SDS011;43161;50.950;18.224;2022-11-21T05:04:15;198.90;;;57.30;;
57325;SDS011;43161;50.950;18.224;2022-11-21T05:06:41;141.90;;;46.70;;
57325;SDS011;43161;50.950;18.224;2022-11-21T05:09:07;171.80;;;49.90;;
57325;SDS011;43161;50.950;18.224;2022-11-21T05:11:33;246.40;;;65.60;;
57325;SDS011;43161;50.950;18.224;2022-11-21T05:14:16;164.20;;;51.70;;
57325;SDS011;43161;50.950;18.224;2022-11-21T05:16:42;121.70;;;43.10;;
57325;SDS011;43161;50.950;18.224;2022-11-21T05:19:07;89.40;;;32.40;;
57325;SDS011;43161;50.950;18.224;2022-11-21T05:21:33;84.40;;;31.50;;
57325;SDS011;43161;50.950;18.224;2022-11-21T05:23:59;85.60;;;32.30;;
57325;SDS011;43161;50.950;18.224;2022-11-21T05:26:24;96.80;;;35.80;;
57325;SDS011;43161;50.950;18.224;2022-11-21T05:28:49;91.60;;;33.30;;
57325;SDS011;43161;50.950;18.224;2022-11-21T05:31:15;95.90;;;33.30;;
57325;SDS011;43161;50.950;18.224;2022-11-21T05:33:40;104.90;;;34.50;;
57325;SDS011;43161;50.950;18.224;2022-11-21T05:36:06;101.80;;;34.10;;
57325;SDS011;43161;50.950;18.224;2022-11-21T05:38:31;94.40;;;36.00;;
57325;SDS011;43161;50.950;18.224;2022-11-21T05:40:57;91.30;;;32.50;;
57325;SDS011;43161;50.950;18.224;2022-11-21T05:43:22;93.60;;;35.20;;
57325;SDS011;43161;50.950;18.224;2022-11-21T05:46:06;108.40;;;38.50;;
57325;SDS011;43161;50.950;18.224;2022-11-21T05:48:32;113.70;;;39.80;;
57325;SDS011;43161;50.950;18.224;2022-11-21T05:51:01;79.40;;;32.30;;
57325;SDS011;43161;50.950;18.224;2022-11-21T05:53:27;89.30;;;35.00;;
57325;SDS011;43161;50.950;18.224;2022-11-21T05:55:52;105.00;;;42.90;;
57325;SDS011;43161;50.950;18.224;2022-11-21T05:58:18;82.10;;;34.20;;
57325;SDS011;43161;50.950;18.224;2022-11-21T06:00:43;81.00;;;33.80;;
57325;SDS011;43161;50.950;18.224;2022-11-21T06:03:09;74.80;;;32.20;;
57325;SDS011;43161;50.950;18.224;2022-11-21T06:05:58;73.80;;;30.10;;
57325;SDS011;43161;50.950;18.224;2022-11-21T06:08:28;74.70;;;32.40;;
57325;SDS011;43161;50.950;18.224;2022-11-21T06:10:55;71.20;;;31.30;;
57325;SDS011;43161;50.950;18.224;2022-11-21T06:13:20;71.80;;;30.70;;
57325;SDS011;43161;50.950;18.224;2022-11-21T06:15:53;82.20;;;33.70;;
57325;SDS011;43161;50.950;18.224;2022-11-21T06:18:23;66.60;;;28.10;;
57325;SDS011;43161;50.950;18.224;2022-11-21T06:20:49;71.00;;;30.20;;
57325;SDS011;43161;50.950;18.224;2022-11-21T06:23:15;79.50;;;35.80;;
57325;SDS011;43161;50.950;18.224;2022-11-21T06:25:40;72.10;;;30.20;;
57325;SDS011;43161;50.950;18.224;2022-11-21T06:28:07;65.40;;;30.70;;
57325;SDS011;43161;50.950;18.224;2022-11-21T06:30:32;67.60;;;31.20;;
57325;SDS011;43161;50.950;18.224;2022-11-21T06:32:58;68.90;;;34.60;;
57325;SDS011;43161;50.950;18.224;2022-11-21T06:35:24;69.10;;;30.20;;
57325;SDS011;43161;50.950;18.224;2022-11-21T06:37:49;73.30;;;34.50;;
57325;SDS011;43161;50.950;18.224;2022-11-21T06:40:15;72.70;;;34.00;;
57325;SDS011;43161;50.950;18.224;2022-11-21T06:42:40;64.10;;;31.40;;
57325;SDS011;43161;50.950;18.224;2022-11-21T06:45:06;64.70;;;30.50;;
57325;SDS011;43161;50.950;18.224;2022-11-21T06:47:32;63.30;;;29.70;;
57325;SDS011;43161;50.950;18.224;2022-11-21T06:49:58;64.50;;;31.40;;
57325;SDS011;43161;50.950;18.224;2022-11-21T06:52:25;65.00;;;29.80;;
57325;SDS011;43161;50.950;18.224;2022-11-21T06:54:51;71.60;;;39.20;;
57325;SDS011;43161;50.950;18.224;2022-11-21T06:57:16;98.40;;;47.50;;
57325;SDS011;43161;50.950;18.224;2022-11-21T06:59:42;74.00;;;34.00;;
57325;SDS011;43161;50.950;18.224;2022-11-21T07:02:14;81.20;;;38.60;;
57325;SDS011;43161;50.950;18.224;2022-11-21T07:04:40;74.80;;;37.40;;
57325;SDS011;43161;50.950;18.224;2022-11-21T07:07:05;63.80;;;31.70;;
57325;SDS011;43161;50.950;18.224;2022-11-21T07:09:31;59.30;;;28.40;;
57325;SDS011;43161;50.950;18.224;2022-11-21T07:11:58;58.70;;;27.50;;
57325;SDS011;43161;50.950;18.224;2022-11-21T07:14:44;62.00;;;30.90;;
57325;SDS011;43161;50.950;18.224;2022-11-21T07:17:10;61.30;;;29.10;;
57325;SDS011;43161;50.950;18.224;2022-11-21T07:19:37;62.00;;;31.10;;
57325;SDS011;43161;50.950;18.224;2022-11-21T07:22:02;57.90;;;28.40;;
57325;SDS011;43161;50.950;18.224;2022-11-21T07:24:28;56.90;;;29.00;;
57325;SDS011;43161;50.950;18.224;2022-11-21T07:26:53;59.80;;;29.20;;
57325;SDS011;43161;50.950;18.224;2022-11-21T07:29:18;59.50;;;28.10;;
57325;SDS011;43161;50.950;18.224;2022-11-21T07:31:44;57.60;;;23.70;;
57325;SDS011;43161;50.950;18.224;2022-11-21T07:34:10;55.40;;;23.50;;
57325;SDS011;43161;50.950;18.224;2022-11-21T07:36:35;54.10;;;25.50;;
57325;SDS011;43161;50.950;18.224;2022-11-21T07:39:01;54.50;;;24.40;;
57325;SDS011;43161;50.950;18.224;2022-11-21T07:41:27;56.70;;;25.60;;
57325;SDS011;43161;50.950;18.224;2022-11-21T07:43:53;50.70;;;25.40;;
57325;SDS011;43161;50.950;18.224;2022-11-21T07:46:18;53.30;;;26.80;;
57325;SDS011;43161;50.950;18.224;2022-11-21T07:48:43;53.50;;;25.40;;
57325;SDS011;43161;50.950;18.224;2022-11-21T07:51:09;51.10;;;25.80;;
57325;SDS011;43161;50.950;18.224;2022-11-21T07:53:35;48.00;;;23.00;;
57325;SDS011;43161;50.950;18.224;2022-11-21T07:56:01;48.60;;;23.10;;
57325;SDS011;43161;50.950;18.224;2022-11-21T07:58:27;53.40;;;24.10;;
57325;SDS011;43161;50.950;18.224;2022-11-21T08:00:52;53.50;;;26.70;;
57325;SDS011;43161;50.950;18.224;2022-11-21T08:03:18;52.00;;;24.60;;
57325;SDS011;43161;50.950;18.224;2022-11-21T08:05:44;53.10;;;24.80;;
57325;SDS011;43161;50.950;18.224;2022-11-21T08:08:10;50.20;;;24.50;;
57325;SDS011;43161;50.950;18.224;2022-11-21T08:10:37;51.20;;;27.00;;
57325;SDS011;43161;50.950;18.224;2022-11-21T08:13:04;50.30;;;25.40;;
57325;SDS011;43161;50.950;18.224;2022-11-21T08:15:29;49.80;;;24.30;;
57325;SDS011;43161;50.950;18.224;2022-11-21T08:17:55;52.60;;;26.60;;
57325;SDS011;43161;50.950;18.224;2022-11-21T08:20:20;49.70;;;25.80;;
57325;SDS011;43161;50.950;18.224;2022-11-21T08:22:46;49.40;;;22.40;;
57325;SDS011;43161;50.950;18.224;2022-11-21T08:25:11;49.00;;;22.40;;
57325;SDS011;43161;50.950;18.224;2022-11-21T08:27:37;54.20;;;26.90;;
57325;SDS011;43161;50.950;18.224;2022-11-21T08:30:07;55.70;;;25.70;;
57325;SDS011;43161;50.950;18.224;2022-11-21T08:32:34;54.10;;;25.60;;
57325;SDS011;43161;50.950;18.224;2022-11-21T08:35:00;58.40;;;25.80;;
57325;SDS011;43161;50.950;18.224;2022-11-21T08:37:26;64.50;;;28.80;;
57325;SDS011;43161;50.950;18.224;2022-11-21T08:39:53;52.90;;;26.00;;
57325;SDS011;43161;50.950;18.224;2022-11-21T08:42:19;50.80;;;24.60;;
57325;SDS011;43161;50.950;18.224;2022-11-21T08:44:45;55.90;;;25.20;;
57325;SDS011;43161;50.950;18.224;2022-11-21T08:47:10;50.50;;;25.90;;
57325;SDS011;43161;50.950;18.224;2022-11-21T08:49:36;52.90;;;26.40;;
57325;SDS011;43161;50.950;18.224;2022-11-21T08:52:01;51.00;;;23.00;;
57325;SDS011;43161;50.950;18.224;2022-11-21T08:54:26;50.90;;;24.00;;
57325;SDS011;43161;50.950;18.224;2022-11-21T08:56:52;58.00;;;26.70;;
57325;SDS011;43161;50.950;18.224;2022-11-21T08:59:17;49.50;;;26.80;;
57325;SDS011;43161;50.950;18.224;2022-11-21T09:01:43;52.60;;;26.10;;
57325;SDS011;43161;50.950;18.224;2022-11-21T09:04:09;51.60;;;28.40;;
57325;SDS011;43161;50.950;18.224;2022-11-21T09:06:35;45.40;;;25.80;;
57325;SDS011;43161;50.950;18.224;2022-11-21T09:09:01;51.70;;;24.10;;
57325;SDS011;43161;50.950;18.224;2022-11-21T09:11:26;52.70;;;23.80;;
57325;SDS011;43161;50.950;18.224;2022-11-21T09:13:52;66.40;;;28.90;;
57325;SDS011;43161;50.950;18.224;2022-11-21T09:16:37;50.90;;;24.40;;
57325;SDS011;43161;50.950;18.224;2022-11-21T09:19:21;57.50;;;26.10;;
57325;SDS011;43161;50.950;18.224;2022-11-21T09:21:48;48.70;;;23.70;;
57325;SDS011;43161;50.950;18.224;2022-11-21T09:24:14;49.10;;;24.40;;
57325;SDS011;43161;50.950;18.224;2022-11-21T09:26:40;55.10;;;25.30;;
57325;SDS011;43161;50.950;18.224;2022-11-21T09:29:06;54.90;;;28.50;;
57325;SDS011;43161;50.950;18.224;2022-11-21T09:31:35;53.10;;;26.60;;
57325;SDS011;43161;50.950;18.224;2022-11-21T09:34:01;56.00;;;29.00;;
57325;SDS011;43161;50.950;18.224;2022-11-21T09:36:28;57.00;;;28.00;;
57325;SDS011;43161;50.950;18.224;2022-11-21T09:38:54;55.50;;;27.50;;
57325;SDS011;43161;50.950;18.224;2022-11-21T09:49:56;55.60;;;26.00;;
57325;SDS011;43161;50.950;18.224;2022-11-21T09:52:26;57.40;;;30.80;;
57325;SDS011;43161;50.950;18.224;2022-11-21T09:54:57;54.30;;;29.20;;
57325;SDS011;43161;50.950;18.224;2022-11-21T09:57:25;70.70;;;42.00;;
57325;SDS011;43161;50.950;18.224;2022-11-21T09:59:51;51.90;;;24.90;;
57325;SDS011;43161;50.950;18.224;2022-11-21T10:02:19;63.90;;;25.90;;
57325;SDS011;43161;50.950;18.224;2022-11-21T10:04:46;52.20;;;24.10;;
57325;SDS011;43161;50.950;18.224;2022-11-21T10:07:18;48.00;;;22.20;;
57325;SDS011;43161;50.950;18.224;2022-11-21T10:12:27;55.50;;;29.10;;
57325;SDS011;43161;50.950;18.224;2022-11-21T10:26:03;40.60;;;20.20;;
57325;SDS011;43161;50.950;18.224;2022-11-21T10:31:25;43.90;;;21.80;;
57325;SDS011;43161;50.950;18.224;2022-11-21T10:33:55;42.20;;;21.60;;
57325;SDS011;43161;50.950;18.224;2022-11-21T10:39:31;40.20;;;19.80;;
57325;SDS011;43161;50.950;18.224;2022-11-21T10:44:53;39.70;;;20.30;;
57325;SDS011;43161;50.950;18.224;2022-11-21T10:47:37;53.40;;;27.70;;
57325;SDS011;43161;50.950;18.224;2022-11-21T10:52:38;40.00;;;19.50;;
57325;SDS011;43161;50.950;18.224;2022-11-21T10:55:09;37.40;;;20.60;;
57325;SDS011;43161;50.950;18.224;2022-11-21T10:57:38;37.60;;;20.20;;
57325;SDS011;43161;50.950;18.224;2022-11-21T11:02:37;38.80;;;20.70;;
57325;SDS011;43161;50.950;18.224;2022-11-21T11:07:58;35.30;;;18.60;;
57325;SDS011;43161;50.950;18.224;2022-11-21T11:10:27;34.20;;;18.70;;
57325;SDS011;43161;50.950;18.224;2022-11-21T11:12:53;36.30;;;15.70;;
57325;SDS011;43161;50.950;18.224;2022-11-21T11:15:38;37.90;;;18.30;;
57325;SDS011;43161;50.950;18.224;2022-11-21T11:18:18;33.30;;;16.60;;
57325;SDS011;43161;50.950;18.224;2022-11-21T11:20:46;28.90;;;15.30;;
57325;SDS011;43161;50.950;18.224;2022-11-21T11:25:47;24.30;;;13.10;;
57325;SDS011;43161;50.950;18.224;2022-11-21T11:28:20;26.00;;;13.10;;
57325;SDS011;43161;50.950;18.224;2022-11-21T11:30:50;24.70;;;11.30;;
57325;SDS011;43161;50.950;18.224;2022-11-21T11:38:54;21.30;;;10.40;;
57325;SDS011;43161;50.950;18.224;2022-11-21T11:44:29;23.60;;;11.30;;
57325;SDS011;43161;50.950;18.224;2022-11-21T11:47:37;23.90;;;10.40;;
57325;SDS011;43161;50.950;18.224;2022-11-21T11:50:08;22.90;;;12.10;;
57325;SDS011;43161;50.950;18.224;2022-11-21T12:03:33;27.10;;;12.60;;
57325;SDS011;43161;50.950;18.224;2022-11-21T12:06:07;24.90;;;12.40;;
57325;SDS011;43161;50.950;18.224;2022-11-21T12:08:42;21.80;;;9.70;;
57325;SDS011;43161;50.950;18.224;2022-11-21T12:17:02;26.80;;;11.40;;
57325;SDS011;43161;50.950;18.224;2022-11-21T12:19:29;25.70;;;11.60;;
57325;SDS011;43161;50.950;18.224;2022-11-21T12:21:55;23.60;;;11.00;;
57325;SDS011;43161;50.950;18.224;2022-11-21T12:24:20;25.40;;;11.40;;
57325;SDS011;43161;50.950;18.224;2022-11-21T12:29:22;32.30;;;16.10;;
57325;SDS011;43161;50.950;18.224;2022-11-21T12:32:20;33.80;;;16.80;;
57325;SDS011;43161;50.950;18.224;2022-11-21T12:37:36;91.20;;;39.10;;
57325;SDS011;43161;50.950;18.224;2022-11-21T12:57:09;39.90;;;18.10;;
57325;SDS011;43161;50.950;18.224;2022-11-21T13:05:36;30.00;;;16.10;;
57325;SDS011;43161;50.950;18.224;2022-11-21T13:10:37;41.90;;;21.50;;
57325;SDS011;43161;50.950;18.224;2022-11-21T13:13:29;70.00;;;31.50;;
57325;SDS011;43161;50.950;18.224;2022-11-21T13:15:57;96.70;;;41.10;;
57325;SDS011;43161;50.950;18.224;2022-11-21T13:18:35;160.30;;;49.50;;
57325;SDS011;43161;50.950;18.224;2022-11-21T13:21:08;168.90;;;58.50;;
57325;SDS011;43161;50.950;18.224;2022-11-21T13:24:13;105.00;;;46.00;;
57325;SDS011;43161;50.950;18.224;2022-11-21T13:30:22;70.90;;;34.10;;
57325;SDS011;43161;50.950;18.224;2022-11-21T13:32:51;71.90;;;35.70;;
57325;SDS011;43161;50.950;18.224;2022-11-21T13:45:47;155.30;;;51.20;;
57325;SDS011;43161;50.950;18.224;2022-11-21T14:02:28;133.80;;;60.10;;
57325;SDS011;43161;50.950;18.224;2022-11-21T14:10:45;63.10;;;28.50;;
57325;SDS011;43161;50.950;18.224;2022-11-21T14:16:06;74.70;;;31.70;;
57325;SDS011;43161;50.950;18.224;2022-11-21T14:18:34;86.00;;;35.70;;
57325;SDS011;43161;50.950;18.224;2022-11-21T14:21:03;69.00;;;31.20;;
57325;SDS011;43161;50.950;18.224;2022-11-21T14:23:32;53.00;;;25.10;;
57325;SDS011;43161;50.950;18.224;2022-11-21T14:26:00;44.50;;;23.50;;
57325;SDS011;43161;50.950;18.224;2022-11-21T14:28:30;34.40;;;16.60;;
57325;SDS011;43161;50.950;18.224;2022-11-21T14:31:01;38.70;;;20.80;;
57325;SDS011;43161;50.950;18.224;2022-11-21T14:38:59;31.70;;;15.40;;
57325;SDS011;43161;50.950;18.224;2022-11-21T14:41:30;33.80;;;17.10;;
57325;SDS011;43161;50.950;18.224;2022-11-21T14:46:27;39.70;;;20.20;;
57325;SDS011;43161;50.950;18.224;2022-11-21T14:49:08;39.50;;;19.80;;
57325;SDS011;43161;50.950;18.224;2022-11-21T14:51:40;37.10;;;16.60;;
57325;SDS011;43161;50.950;18.224;2022-11-21T14:54:12;32.60;;;16.10;;
57325;SDS011;43161;50.950;18.224;2022-11-21T14:56:41;33.90;;;15.40;;
57325;SDS011;43161;50.950;18.224;2022-11-21T15:02:00;38.00;;;17.60;;
57325;SDS011;43161;50.950;18.224;2022-11-21T15:04:28;42.90;;;23.80;;
57325;SDS011;43161;50.950;18.224;2022-11-21T15:06:56;46.40;;;28.80;;
57325;SDS011;43161;50.950;18.224;2022-11-21T15:09:22;28.40;;;15.10;;
57325;SDS011;43161;50.950;18.224;2022-11-21T15:11:50;36.20;;;16.50;;
57325;SDS011;43161;50.950;18.224;2022-11-21T15:14:22;38.50;;;18.90;;
57325;SDS011;43161;50.950;18.224;2022-11-21T15:16:56;30.80;;;15.20;;
57325;SDS011;43161;50.950;18.224;2022-11-21T15:19:23;46.20;;;24.40;;
57325;SDS011;43161;50.950;18.224;2022-11-21T15:21:51;32.90;;;17.40;;
57325;SDS011;43161;50.950;18.224;2022-11-21T15:26:56;34.50;;;17.80;;
57325;SDS011;43161;50.950;18.224;2022-11-21T15:29:23;32.70;;;16.00;;
57325;SDS011;43161;50.950;18.224;2022-11-21T15:34:34;29.00;;;13.80;;
57325;SDS011;43161;50.950;18.224;2022-11-21T15:39:44;30.30;;;13.50;;
57325;SDS011;43161;50.950;18.224;2022-11-21T15:44:57;26.60;;;12.30;;
57325;SDS011;43161;50.950;18.224;2022-11-21T15:47:24;52.30;;;24.40;;
57325;SDS011;43161;50.950;18.224;2022-11-21T15:49:49;36.70;;;16.60;;
57325;SDS011;43161;50.950;18.224;2022-11-21T15:52:15;37.30;;;16.10;;
57325;SDS011;43161;50.950;18.224;2022-11-21T15:54:40;36.20;;;15.70;;
57325;SDS011;43161;50.950;18.224;2022-11-21T15:57:07;58.30;;;22.60;;
57325;SDS011;43161;50.950;18.224;2022-11-21T15:59:33;46.00;;;17.80;;
57325;SDS011;43161;50.950;18.224;2022-11-21T16:01:59;38.20;;;15.50;;
57325;SDS011;43161;50.950;18.224;2022-11-21T16:04:24;33.60;;;14.40;;
57325;SDS011;43161;50.950;18.224;2022-11-21T16:06:50;38.50;;;16.60;;
57325;SDS011;43161;50.950;18.224;2022-11-21T16:09:15;38.90;;;16.30;;
57325;SDS011;43161;50.950;18.224;2022-11-21T16:11:40;44.90;;;17.20;;
57325;SDS011;43161;50.950;18.224;2022-11-21T16:14:07;41.60;;;18.70;;
57325;SDS011;43161;50.950;18.224;2022-11-21T16:16:37;37.30;;;16.50;;
57325;SDS011;43161;50.950;18.224;2022-11-21T16:19:04;46.40;;;18.90;;
57325;SDS011;43161;50.950;18.224;2022-11-21T16:21:30;42.30;;;18.50;;
57325;SDS011;43161;50.950;18.224;2022-11-21T16:23:55;40.70;;;18.10;;
57325;SDS011;43161;50.950;18.224;2022-11-21T16:26:21;45.00;;;18.80;;
57325;SDS011;43161;50.950;18.224;2022-11-21T16:28:55;36.80;;;15.60;;
57325;SDS011;43161;50.950;18.224;2022-11-21T16:31:22;38.70;;;17.20;;
57325;SDS011;43161;50.950;18.224;2022-11-21T16:33:51;37.60;;;16.30;;
57325;SDS011;43161;50.950;18.224;2022-11-21T16:36:18;35.50;;;15.80;;
57325;SDS011;43161;50.950;18.224;2022-11-21T16:38:45;38.80;;;17.60;;
57325;SDS011;43161;50.950;18.224;2022-11-21T16:41:11;37.00;;;17.80;;
57325;SDS011;43161;50.950;18.224;2022-11-21T16:43:36;42.10;;;19.20;;
57325;SDS011;43161;50.950;18.224;2022-11-21T16:46:10;37.50;;;18.50;;
57325;SDS011;43161;50.950;18.224;2022-11-21T16:48:35;65.80;;;23.60;;
57325;SDS011;43161;50.950;18.224;2022-11-21T16:51:07;60.30;;;23.40;;
57325;SDS011;43161;50.950;18.224;2022-11-21T16:53:37;84.10;;;28.90;;
57325;SDS011;43161;50.950;18.224;2022-11-21T16:56:04;62.80;;;23.60;;
57325;SDS011;43161;50.950;18.224;2022-11-21T16:58:30;66.20;;;24.90;;
57325;SDS011;43161;50.950;18.224;2022-11-21T17:00:56;54.00;;;22.80;;
57325;SDS011;43161;50.950;18.224;2022-11-21T17:03:22;55.70;;;24.40;;
57325;SDS011;43161;50.950;18.224;2022-11-21T17:08:32;46.60;;;20.70;;
57325;SDS011;43161;50.950;18.224;2022-11-21T17:10:58;44.80;;;19.50;;
57325;SDS011;43161;50.950;18.224;2022-11-21T17:13:24;43.30;;;19.40;;